sensor_id;sensor_type;location;lat;lon;timestamp;temperature;humidity
81951;DHT22;71452;52.562;5.642;2024-02-15T00:01:43;12.60;80.30
81951;DHT22;71452;52.562;5.642;2024-02-15T00:04:12;12.60;80.40
81951;DHT22;71452;52.562;5.642;2024-02-15T00:06:43;12.60;80.30
81951;DHT22;71452;52.562;5.642;2024-02-15T00:09:12;12.60;80.20
81951;DHT22;71452;52.562;5.642;2024-02-15T00:11:41;12.70;80.00
81951;DHT22;71452;52.562;5.642;2024-02-15T00:14:13;12.60;80.00
81951;DHT22;71452;52.562;5.642;2024-02-15T00:16:43;12.70;79.90
81951;DHT22;71452;52.562;5.642;2024-02-15T00:19:12;12.60;80.00
81951;DHT22;71452;52.562;5.642;2024-02-15T00:21:43;12.70;79.80
81951;DHT22;71452;52.562;5.642;2024-02-15T00:24:12;12.60;79.80
81951;DHT22;71452;52.562;5.642;2024-02-15T00:26:41;12.70;79.80
81951;DHT22;71452;52.562;5.642;2024-02-15T00:29:13;12.60;79.80
81951;DHT22;71452;52.562;5.642;2024-02-15T00:31:43;12.60;79.90
81951;DHT22;71452;52.562;5.642;2024-02-15T00:34:13;12.50;80.00
81951;DHT22;71452;52.562;5.642;2024-02-15T00:36:42;12.60;80.00
81951;DHT22;71452;52.562;5.642;2024-02-15T00:39:12;12.60;80.00
81951;DHT22;71452;52.562;5.642;2024-02-15T00:41:46;12.60;80.00
81951;DHT22;71452;52.562;5.642;2024-02-15T00:44:18;12.60;80.00
81951;DHT22;71452;52.562;5.642;2024-02-15T00:46:47;12.50;79.90
81951;DHT22;71452;52.562;5.642;2024-02-15T00:49:16;12.60;79.90
81951;DHT22;71452;52.562;5.642;2024-02-15T00:51:47;12.60;79.90
81951;DHT22;71452;52.562;5.642;2024-02-15T00:54:16;12.50;80.00
81951;DHT22;71452;52.562;5.642;2024-02-15T00:56:45;12.50;80.10
81951;DHT22;71452;52.562;5.642;2024-02-15T00:59:14;12.60;80.00
81951;DHT22;71452;52.562;5.642;2024-02-15T01:01:47;12.60;79.80
81951;DHT22;71452;52.562;5.642;2024-02-15T01:04:16;12.70;79.80
81951;DHT22;71452;52.562;5.642;2024-02-15T01:06:45;12.60;79.80
81951;DHT22;71452;52.562;5.642;2024-02-15T01:09:14;12.60;79.90
81951;DHT22;71452;52.562;5.642;2024-02-15T01:11:44;12.70;79.70
81951;DHT22;71452;52.562;5.642;2024-02-15T01:14:14;12.70;79.80
81951;DHT22;71452;52.562;5.642;2024-02-15T01:16:45;12.70;79.80
81951;DHT22;71452;52.562;5.642;2024-02-15T01:19:15;12.70;79.90
81951;DHT22;71452;52.562;5.642;2024-02-15T01:21:44;12.70;80.00
81951;DHT22;71452;52.562;5.642;2024-02-15T01:24:13;12.70;79.90
81951;DHT22;71452;52.562;5.642;2024-02-15T01:26:42;12.70;79.90
81951;DHT22;71452;52.562;5.642;2024-02-15T01:29:14;12.70;79.90
81951;DHT22;71452;52.562;5.642;2024-02-15T01:31:45;12.70;80.00
81951;DHT22;71452;52.562;5.642;2024-02-15T01:34:15;12.70;80.10
81951;DHT22;71452;52.562;5.642;2024-02-15T01:36:44;12.70;80.10
81951;DHT22;71452;52.562;5.642;2024-02-15T01:39:16;12.80;80.10
81951;DHT22;71452;52.562;5.642;2024-02-15T01:41:49;12.80;79.90
81951;DHT22;71452;52.562;5.642;2024-02-15T01:44:22;12.80;79.90
81951;DHT22;71452;52.562;5.642;2024-02-15T01:46:54;12.80;79.90
81951;DHT22;71452;52.562;5.642;2024-02-15T01:49:24;12.80;80.00
81951;DHT22;71452;52.562;5.642;2024-02-15T01:51:56;12.80;79.90
81951;DHT22;71452;52.562;5.642;2024-02-15T01:54:26;12.80;79.90
81951;DHT22;71452;52.562;5.642;2024-02-15T01:56:56;12.80;80.00
81951;DHT22;71452;52.562;5.642;2024-02-15T01:59:25;12.80;80.00
81951;DHT22;71452;52.562;5.642;2024-02-15T02:01:57;12.90;79.80
81951;DHT22;71452;52.562;5.642;2024-02-15T02:04:26;12.90;79.80
81951;DHT22;71452;52.562;5.642;2024-02-15T02:06:57;12.90;80.00
81951;DHT22;71452;52.562;5.642;2024-02-15T02:09:27;12.90;79.90
81951;DHT22;71452;52.562;5.642;2024-02-15T02:11:56;12.90;79.80
81951;DHT22;71452;52.562;5.642;2024-02-15T02:14:25;12.90;79.80
81951;DHT22;71452;52.562;5.642;2024-02-15T02:17:10;12.90;79.70
81951;DHT22;71452;52.562;5.642;2024-02-15T02:19:40;12.90;79.70
81951;DHT22;71452;52.562;5.642;2024-02-15T02:22:10;12.90;79.80
81951;DHT22;71452;52.562;5.642;2024-02-15T02:24:55;12.90;79.70
81951;DHT22;71452;52.562;5.642;2024-02-15T02:27:26;12.90;79.70
81951;DHT22;71452;52.562;5.642;2024-02-15T02:29:56;12.90;79.70
81951;DHT22;71452;52.562;5.642;2024-02-15T02:32:25;12.90;79.80
81951;DHT22;71452;52.562;5.642;2024-02-15T02:34:56;12.90;79.80
81951;DHT22;71452;52.562;5.642;2024-02-15T02:37:28;12.90;79.80
81951;DHT22;71452;52.562;5.642;2024-02-15T02:40:00;12.90;79.80
81951;DHT22;71452;52.562;5.642;2024-02-15T02:42:29;12.90;79.70
81951;DHT22;71452;52.562;5.642;2024-02-15T02:44:58;13.00;79.70
81951;DHT22;71452;52.562;5.642;2024-02-15T02:47:27;13.00;79.80
81951;DHT22;71452;52.562;5.642;2024-02-15T02:49:57;13.00;79.80
81951;DHT22;71452;52.562;5.642;2024-02-15T02:52:26;13.00;79.70
81951;DHT22;71452;52.562;5.642;2024-02-15T02:54:55;12.90;79.80
81951;DHT22;71452;52.562;5.642;2024-02-15T02:57:27;13.00;79.80
81951;DHT22;71452;52.562;5.642;2024-02-15T02:59:58;13.00;79.80
81951;DHT22;71452;52.562;5.642;2024-02-15T03:02:30;13.00;79.80
81951;DHT22;71452;52.562;5.642;2024-02-15T03:04:59;13.00;79.80
81951;DHT22;71452;52.562;5.642;2024-02-15T03:07:29;13.00;79.70
81951;DHT22;71452;52.562;5.642;2024-02-15T03:09:58;13.00;79.80
81951;DHT22;71452;52.562;5.642;2024-02-15T03:12:29;13.00;79.70
81951;DHT22;71452;52.562;5.642;2024-02-15T03:15:01;13.00;79.70
81951;DHT22;71452;52.562;5.642;2024-02-15T03:17:31;13.00;79.70
81951;DHT22;71452;52.562;5.642;2024-02-15T03:20:00;13.00;79.60
81951;DHT22;71452;52.562;5.642;2024-02-15T03:22:37;13.00;79.50
81951;DHT22;71452;52.562;5.642;2024-02-15T03:25:07;13.00;79.60
81951;DHT22;71452;52.562;5.642;2024-02-15T03:27:39;13.00;79.60
81951;DHT22;71452;52.562;5.642;2024-02-15T03:30:09;13.00;79.60
81951;DHT22;71452;52.562;5.642;2024-02-15T03:32:40;13.00;79.50
81951;DHT22;71452;52.562;5.642;2024-02-15T03:35:09;12.90;79.60
81951;DHT22;71452;52.562;5.642;2024-02-15T03:37:40;12.90;79.60
81951;DHT22;71452;52.562;5.642;2024-02-15T03:40:10;12.90;79.60
81951;DHT22;71452;52.562;5.642;2024-02-15T03:42:43;12.90;79.70
81951;DHT22;71452;52.562;5.642;2024-02-15T03:45:13;12.90;79.70
81951;DHT22;71452;52.562;5.642;2024-02-15T03:47:42;12.90;79.80
81951;DHT22;71452;52.562;5.642;2024-02-15T03:50:12;12.90;79.70
81951;DHT22;71452;52.562;5.642;2024-02-15T03:52:42;12.90;79.70
81951;DHT22;71452;52.562;5.642;2024-02-15T03:55:12;12.90;79.70
81951;DHT22;71452;52.562;5.642;2024-02-15T03:57:44;13.00;79.70
81951;DHT22;71452;52.562;5.642;2024-02-15T04:00:14;13.00;79.60
81951;DHT22;71452;52.562;5.642;2024-02-15T04:02:46;12.90;79.60
81951;DHT22;71452;52.562;5.642;2024-02-15T04:05:16;12.90;79.60
81951;DHT22;71452;52.562;5.642;2024-02-15T04:07:48;12.90;79.70
81951;DHT22;71452;52.562;5.642;2024-02-15T04:10:17;12.90;79.70
81951;DHT22;71452;52.562;5.642;2024-02-15T04:12:49;12.90;79.70
81951;DHT22;71452;52.562;5.642;2024-02-15T04:15:20;12.90;79.70
81951;DHT22;71452;52.562;5.642;2024-02-15T04:17:49;12.90;79.70
81951;DHT22;71452;52.562;5.642;2024-02-15T04:20:22;12.90;79.80
81951;DHT22;71452;52.562;5.642;2024-02-15T04:22:52;12.90;79.80
81951;DHT22;71452;52.562;5.642;2024-02-15T04:25:24;12.90;79.80
81951;DHT22;71452;52.562;5.642;2024-02-15T04:27:56;12.90;79.80
81951;DHT22;71452;52.562;5.642;2024-02-15T04:30:29;12.90;79.70
81951;DHT22;71452;52.562;5.642;2024-02-15T04:33:01;12.90;79.80
81951;DHT22;71452;52.562;5.642;2024-02-15T04:35:30;12.90;79.80
81951;DHT22;71452;52.562;5.642;2024-02-15T04:37:59;12.90;79.70
81951;DHT22;71452;52.562;5.642;2024-02-15T04:40:29;12.90;79.70
81951;DHT22;71452;52.562;5.642;2024-02-15T04:43:01;12.90;79.80
81951;DHT22;71452;52.562;5.642;2024-02-15T04:45:31;12.90;79.80
81951;DHT22;71452;52.562;5.642;2024-02-15T04:48:00;12.90;79.70
81951;DHT22;71452;52.562;5.642;2024-02-15T04:50:30;12.90;79.70
81951;DHT22;71452;52.562;5.642;2024-02-15T04:52:59;12.90;79.70
81951;DHT22;71452;52.562;5.642;2024-02-15T04:55:29;12.90;79.70
81951;DHT22;71452;52.562;5.642;2024-02-15T04:58:01;12.90;79.80
81951;DHT22;71452;52.562;5.642;2024-02-15T05:00:31;12.90;79.70
81951;DHT22;71452;52.562;5.642;2024-02-15T05:03:03;12.90;79.70
81951;DHT22;71452;52.562;5.642;2024-02-15T05:05:34;12.90;79.70
81951;DHT22;71452;52.562;5.642;2024-02-15T05:08:05;12.90;79.70
81951;DHT22;71452;52.562;5.642;2024-02-15T05:10:35;12.90;79.70
81951;DHT22;71452;52.562;5.642;2024-02-15T05:13:07;12.90;79.80
81951;DHT22;71452;52.562;5.642;2024-02-15T05:15:38;12.90;79.80
81951;DHT22;71452;52.562;5.642;2024-02-15T05:18:07;12.90;79.80
81951;DHT22;71452;52.562;5.642;2024-02-15T05:20:36;12.80;79.90
81951;DHT22;71452;52.562;5.642;2024-02-15T05:23:07;12.80;79.90
81951;DHT22;71452;52.562;5.642;2024-02-15T05:25:36;12.80;79.90
81951;DHT22;71452;52.562;5.642;2024-02-15T05:28:08;12.90;79.80
81951;DHT22;71452;52.562;5.642;2024-02-15T05:30:37;12.80;79.80
81951;DHT22;71452;52.562;5.642;2024-02-15T05:33:06;12.90;79.80
81951;DHT22;71452;52.562;5.642;2024-02-15T05:35:37;12.80;79.80
81951;DHT22;71452;52.562;5.642;2024-02-15T05:38:07;12.80;79.80
81951;DHT22;71452;52.562;5.642;2024-02-15T05:40:41;12.80;79.80
81951;DHT22;71452;52.562;5.642;2024-02-15T05:43:13;12.80;79.80
81951;DHT22;71452;52.562;5.642;2024-02-15T05:45:43;12.80;79.80
81951;DHT22;71452;52.562;5.642;2024-02-15T05:48:12;12.80;79.90
81951;DHT22;71452;52.562;5.642;2024-02-15T05:50:42;12.80;80.00
81951;DHT22;71452;52.562;5.642;2024-02-15T05:53:11;12.80;80.00
81951;DHT22;71452;52.562;5.642;2024-02-15T05:55:40;12.80;80.00
81951;DHT22;71452;52.562;5.642;2024-02-15T05:58:13;12.80;80.00
81951;DHT22;71452;52.562;5.642;2024-02-15T06:00:43;12.80;80.10
81951;DHT22;71452;52.562;5.642;2024-02-15T06:03:16;12.80;80.10
81951;DHT22;71452;52.562;5.642;2024-02-15T06:05:45;12.80;80.10
81951;DHT22;71452;52.562;5.642;2024-02-15T06:08:14;12.80;80.20
81951;DHT22;71452;52.562;5.642;2024-02-15T06:10:44;12.80;80.20
81951;DHT22;71452;52.562;5.642;2024-02-15T06:13:16;12.70;80.30
81951;DHT22;71452;52.562;5.642;2024-02-15T06:15:45;12.80;80.40
81951;DHT22;71452;52.562;5.642;2024-02-15T06:18:19;12.80;80.40
81951;DHT22;71452;52.562;5.642;2024-02-15T06:20:50;12.80;80.50
81951;DHT22;71452;52.562;5.642;2024-02-15T06:23:19;12.80;80.40
81951;DHT22;71452;52.562;5.642;2024-02-15T06:25:51;12.80;80.50
81951;DHT22;71452;52.562;5.642;2024-02-15T06:28:24;12.80;80.40
81951;DHT22;71452;52.562;5.642;2024-02-15T06:31:05;12.80;80.50
81951;DHT22;71452;52.562;5.642;2024-02-15T06:33:47;12.80;80.50
81951;DHT22;71452;52.562;5.642;2024-02-15T06:36:28;12.80;80.40
81951;DHT22;71452;52.562;5.642;2024-02-15T06:39:10;12.80;80.60
81951;DHT22;71452;52.562;5.642;2024-02-15T06:41:51;12.80;80.60
81951;DHT22;71452;52.562;5.642;2024-02-15T06:44:23;12.80;80.50
81951;DHT22;71452;52.562;5.642;2024-02-15T06:46:52;12.80;80.40
81951;DHT22;71452;52.562;5.642;2024-02-15T06:49:22;12.80;80.40
81951;DHT22;71452;52.562;5.642;2024-02-15T06:51:51;12.80;80.50
81951;DHT22;71452;52.562;5.642;2024-02-15T06:54:21;12.80;80.50
81951;DHT22;71452;52.562;5.642;2024-02-15T06:56:50;12.90;80.40
81951;DHT22;71452;52.562;5.642;2024-02-15T06:59:23;12.80;80.50
81951;DHT22;71452;52.562;5.642;2024-02-15T07:01:52;12.80;80.50
81951;DHT22;71452;52.562;5.642;2024-02-15T07:04:21;12.80;80.60
81951;DHT22;71452;52.562;5.642;2024-02-15T07:06:51;12.90;80.50
81951;DHT22;71452;52.562;5.642;2024-02-15T07:09:21;12.80;80.50
81951;DHT22;71452;52.562;5.642;2024-02-15T07:11:51;12.80;80.40
81951;DHT22;71452;52.562;5.642;2024-02-15T07:14:23;12.80;80.50
81951;DHT22;71452;52.562;5.642;2024-02-15T07:16:54;12.80;80.50
81951;DHT22;71452;52.562;5.642;2024-02-15T07:19:24;12.80;80.50
81951;DHT22;71452;52.562;5.642;2024-02-15T07:21:54;12.80;80.50
81951;DHT22;71452;52.562;5.642;2024-02-15T07:24:23;12.80;80.50
81951;DHT22;71452;52.562;5.642;2024-02-15T07:26:52;12.90;80.60
81951;DHT22;71452;52.562;5.642;2024-02-15T07:29:24;12.90;80.60
81951;DHT22;71452;52.562;5.642;2024-02-15T07:31:54;12.90;80.60
81951;DHT22;71452;52.562;5.642;2024-02-15T07:34:23;12.90;80.60
81951;DHT22;71452;52.562;5.642;2024-02-15T07:36:52;12.90;80.60
81951;DHT22;71452;52.562;5.642;2024-02-15T07:39:22;12.90;80.70
81951;DHT22;71452;52.562;5.642;2024-02-15T07:41:54;12.90;80.80
81951;DHT22;71452;52.562;5.642;2024-02-15T07:44:27;12.90;80.70
81951;DHT22;71452;52.562;5.642;2024-02-15T07:47:01;13.00;80.80
81951;DHT22;71452;52.562;5.642;2024-02-15T07:49:31;12.90;80.70
81951;DHT22;71452;52.562;5.642;2024-02-15T07:52:01;13.00;80.80
81951;DHT22;71452;52.562;5.642;2024-02-15T07:54:30;12.90;80.70
81951;DHT22;71452;52.562;5.642;2024-02-15T07:57:00;12.90;80.70
81951;DHT22;71452;52.562;5.642;2024-02-15T07:59:32;12.90;80.70
81951;DHT22;71452;52.562;5.642;2024-02-15T08:02:02;12.90;80.80
81951;DHT22;71452;52.562;5.642;2024-02-15T08:04:32;12.90;81.00
81951;DHT22;71452;52.562;5.642;2024-02-15T08:07:06;12.90;81.10
81951;DHT22;71452;52.562;5.642;2024-02-15T08:09:37;12.90;81.20
81951;DHT22;71452;52.562;5.642;2024-02-15T08:12:06;12.90;81.20
81951;DHT22;71452;52.562;5.642;2024-02-15T08:14:38;12.90;81.20
81951;DHT22;71452;52.562;5.642;2024-02-15T08:17:09;13.00;81.20
81951;DHT22;71452;52.562;5.642;2024-02-15T08:19:40;13.00;81.10
81951;DHT22;71452;52.562;5.642;2024-02-15T08:22:10;13.00;81.00
81951;DHT22;71452;52.562;5.642;2024-02-15T08:24:42;13.00;81.00
81951;DHT22;71452;52.562;5.642;2024-02-15T08:27:11;13.00;81.00
81951;DHT22;71452;52.562;5.642;2024-02-15T08:29:45;13.00;81.00
81951;DHT22;71452;52.562;5.642;2024-02-15T08:32:14;13.00;81.10
81951;DHT22;71452;52.562;5.642;2024-02-15T08:34:43;13.00;81.10
81951;DHT22;71452;52.562;5.642;2024-02-15T08:37:14;13.10;81.00
81951;DHT22;71452;52.562;5.642;2024-02-15T08:39:44;13.10;80.90
81951;DHT22;71452;52.562;5.642;2024-02-15T08:42:14;13.10;80.90
81951;DHT22;71452;52.562;5.642;2024-02-15T08:44:45;13.10;81.00
81951;DHT22;71452;52.562;5.642;2024-02-15T08:47:15;13.10;81.00
81951;DHT22;71452;52.562;5.642;2024-02-15T08:49:44;13.10;80.90
81951;DHT22;71452;52.562;5.642;2024-02-15T08:52:13;13.10;80.90
81951;DHT22;71452;52.562;5.642;2024-02-15T08:54:44;13.10;81.00
81951;DHT22;71452;52.562;5.642;2024-02-15T08:57:13;13.10;81.00
81951;DHT22;71452;52.562;5.642;2024-02-15T08:59:47;13.10;81.00
81951;DHT22;71452;52.562;5.642;2024-02-15T09:02:18;13.10;81.00
81951;DHT22;71452;52.562;5.642;2024-02-15T09:04:47;13.10;81.00
81951;DHT22;71452;52.562;5.642;2024-02-15T09:07:16;13.10;80.90
81951;DHT22;71452;52.562;5.642;2024-02-15T09:09:47;13.10;81.00
81951;DHT22;71452;52.562;5.642;2024-02-15T09:12:16;13.10;81.00
81951;DHT22;71452;52.562;5.642;2024-02-15T09:14:48;13.20;81.00
81951;DHT22;71452;52.562;5.642;2024-02-15T09:17:17;13.30;80.90
81951;DHT22;71452;52.562;5.642;2024-02-15T09:19:47;13.30;80.90
81951;DHT22;71452;52.562;5.642;2024-02-15T09:22:17;13.30;80.90
81951;DHT22;71452;52.562;5.642;2024-02-15T09:24:46;13.30;80.90
81951;DHT22;71452;52.562;5.642;2024-02-15T09:27:16;13.30;80.80
81951;DHT22;71452;52.562;5.642;2024-02-15T09:29:47;13.30;80.80
81951;DHT22;71452;52.562;5.642;2024-02-15T09:32:14;13.30;80.90
81951;DHT22;71452;52.562;5.642;2024-02-15T09:34:43;13.30;80.90
81951;DHT22;71452;52.562;5.642;2024-02-15T09:37:12;13.30;80.90
81951;DHT22;71452;52.562;5.642;2024-02-15T09:39:42;13.30;80.90
81951;DHT22;71452;52.562;5.642;2024-02-15T09:42:12;13.30;80.90
81951;DHT22;71452;52.562;5.642;2024-02-15T09:44:41;13.30;80.80
81951;DHT22;71452;52.562;5.642;2024-02-15T09:47:16;13.30;80.80
81951;DHT22;71452;52.562;5.642;2024-02-15T09:49:47;13.30;80.70
81951;DHT22;71452;52.562;5.642;2024-02-15T09:52:16;13.30;80.70
81951;DHT22;71452;52.562;5.642;2024-02-15T09:54:46;13.30;80.70
81951;DHT22;71452;52.562;5.642;2024-02-15T09:57:17;13.30;80.70
81951;DHT22;71452;52.562;5.642;2024-02-15T09:59:46;13.30;80.70
81951;DHT22;71452;52.562;5.642;2024-02-15T10:02:19;13.30;80.60
81951;DHT22;71452;52.562;5.642;2024-02-15T10:04:48;13.30;80.70
81951;DHT22;71452;52.562;5.642;2024-02-15T10:07:18;13.30;80.70
81951;DHT22;71452;52.562;5.642;2024-02-15T10:09:47;13.30;80.60
81951;DHT22;71452;52.562;5.642;2024-02-15T10:12:16;13.30;80.60
81951;DHT22;71452;52.562;5.642;2024-02-15T10:14:51;13.30;80.70
81951;DHT22;71452;52.562;5.642;2024-02-15T10:17:23;13.40;80.80
81951;DHT22;71452;52.562;5.642;2024-02-15T10:20:03;13.40;80.70
81951;DHT22;71452;52.562;5.642;2024-02-15T10:22:33;13.40;80.60
81951;DHT22;71452;52.562;5.642;2024-02-15T10:25:11;13.40;80.70
81951;DHT22;71452;52.562;5.642;2024-02-15T10:27:40;13.40;80.70
81951;DHT22;71452;52.562;5.642;2024-02-15T10:30:15;13.40;80.70
81951;DHT22;71452;52.562;5.642;2024-02-15T10:32:47;13.40;80.70
81951;DHT22;71452;52.562;5.642;2024-02-15T10:35:20;13.50;80.70
81951;DHT22;71452;52.562;5.642;2024-02-15T10:37:50;13.50;80.70
81951;DHT22;71452;52.562;5.642;2024-02-15T10:40:20;13.50;80.70
81951;DHT22;71452;52.562;5.642;2024-02-15T10:42:51;13.50;80.70
81951;DHT22;71452;52.562;5.642;2024-02-15T10:45:22;13.50;80.70
81951;DHT22;71452;52.562;5.642;2024-02-15T10:47:54;13.50;80.80
81951;DHT22;71452;52.562;5.642;2024-02-15T10:50:24;13.50;80.80
81951;DHT22;71452;52.562;5.642;2024-02-15T10:52:55;13.50;80.70
81951;DHT22;71452;52.562;5.642;2024-02-15T10:55:35;13.50;80.60
81951;DHT22;71452;52.562;5.642;2024-02-15T10:58:06;13.60;80.50
81951;DHT22;71452;52.562;5.642;2024-02-15T11:00:35;13.50;80.60
81951;DHT22;71452;52.562;5.642;2024-02-15T11:03:10;13.60;80.60
81951;DHT22;71452;52.562;5.642;2024-02-15T11:05:44;13.60;80.50
81951;DHT22;71452;52.562;5.642;2024-02-15T11:08:13;13.60;80.50
81951;DHT22;71452;52.562;5.642;2024-02-15T11:10:43;13.70;80.30
81951;DHT22;71452;52.562;5.642;2024-02-15T11:13:14;13.70;80.20
81951;DHT22;71452;52.562;5.642;2024-02-15T11:15:47;13.70;80.20
81951;DHT22;71452;52.562;5.642;2024-02-15T11:18:46;13.70;80.10
81951;DHT22;71452;52.562;5.642;2024-02-15T11:21:18;13.70;80.10
81951;DHT22;71452;52.562;5.642;2024-02-15T11:23:47;13.70;80.10
81951;DHT22;71452;52.562;5.642;2024-02-15T11:26:44;13.70;80.20
81951;DHT22;71452;52.562;5.642;2024-02-15T11:32:42;13.80;80.00
81951;DHT22;71452;52.562;5.642;2024-02-15T11:35:18;13.80;80.10
81951;DHT22;71452;52.562;5.642;2024-02-15T11:37:50;13.90;80.20
81951;DHT22;71452;52.562;5.642;2024-02-15T11:40:20;13.90;80.10
81951;DHT22;71452;52.562;5.642;2024-02-15T11:42:52;13.90;80.10
81951;DHT22;71452;52.562;5.642;2024-02-15T11:45:23;13.90;80.00
81951;DHT22;71452;52.562;5.642;2024-02-15T11:47:53;13.90;80.00
81951;DHT22;71452;52.562;5.642;2024-02-15T11:50:27;13.90;80.00
81951;DHT22;71452;52.562;5.642;2024-02-15T11:53:03;13.90;80.00
81951;DHT22;71452;52.562;5.642;2024-02-15T11:55:35;13.90;79.90
81951;DHT22;71452;52.562;5.642;2024-02-15T11:58:07;13.90;79.90
81951;DHT22;71452;52.562;5.642;2024-02-15T12:00:44;14.00;79.80
81951;DHT22;71452;52.562;5.642;2024-02-15T12:03:28;13.90;79.80
81951;DHT22;71452;52.562;5.642;2024-02-15T12:06:12;14.00;79.80
81951;DHT22;71452;52.562;5.642;2024-02-15T12:08:58;14.00;79.80
81951;DHT22;71452;52.562;5.642;2024-02-15T12:11:40;13.90;79.70
81951;DHT22;71452;52.562;5.642;2024-02-15T12:14:22;13.90;79.80
81951;DHT22;71452;52.562;5.642;2024-02-15T12:17:05;13.90;79.80
81951;DHT22;71452;52.562;5.642;2024-02-15T12:19:48;14.00;79.80
81951;DHT22;71452;52.562;5.642;2024-02-15T12:22:23;13.90;79.90
81951;DHT22;71452;52.562;5.642;2024-02-15T12:24:56;13.90;79.80
81951;DHT22;71452;52.562;5.642;2024-02-15T12:27:26;13.90;79.90
81951;DHT22;71452;52.562;5.642;2024-02-15T12:29:57;13.90;80.00
81951;DHT22;71452;52.562;5.642;2024-02-15T12:32:27;13.90;80.00
81951;DHT22;71452;52.562;5.642;2024-02-15T12:35:10;13.90;80.00
81951;DHT22;71452;52.562;5.642;2024-02-15T12:37:46;14.00;80.00
81951;DHT22;71452;52.562;5.642;2024-02-15T12:40:17;14.00;80.00
81951;DHT22;71452;52.562;5.642;2024-02-15T12:42:48;14.00;80.00
81951;DHT22;71452;52.562;5.642;2024-02-15T12:45:18;14.00;79.90
81951;DHT22;71452;52.562;5.642;2024-02-15T12:47:48;14.10;79.80
81951;DHT22;71452;52.562;5.642;2024-02-15T12:50:20;14.10;79.80
81951;DHT22;71452;52.562;5.642;2024-02-15T12:52:52;14.10;79.80
81951;DHT22;71452;52.562;5.642;2024-02-15T12:55:22;14.10;79.80
81951;DHT22;71452;52.562;5.642;2024-02-15T12:57:53;14.00;79.90
81951;DHT22;71452;52.562;5.642;2024-02-15T13:00:24;14.10;80.00
81951;DHT22;71452;52.562;5.642;2024-02-15T13:02:55;14.10;80.00
81951;DHT22;71452;52.562;5.642;2024-02-15T13:05:26;14.10;80.00
81951;DHT22;71452;52.562;5.642;2024-02-15T13:07:58;14.20;80.00
81951;DHT22;71452;52.562;5.642;2024-02-15T13:10:28;14.20;79.90
81951;DHT22;71452;52.562;5.642;2024-02-15T13:12:58;14.20;79.80
81951;DHT22;71452;52.562;5.642;2024-02-15T13:15:27;14.20;80.00
81951;DHT22;71452;52.562;5.642;2024-02-15T13:17:59;14.20;80.00
81951;DHT22;71452;52.562;5.642;2024-02-15T13:20:30;14.20;80.00
81951;DHT22;71452;52.562;5.642;2024-02-15T13:23:05;14.30;80.00
81951;DHT22;71452;52.562;5.642;2024-02-15T13:25:41;14.30;79.80
81951;DHT22;71452;52.562;5.642;2024-02-15T13:28:12;14.30;79.90
81951;DHT22;71452;52.562;5.642;2024-02-15T13:30:41;14.30;79.80
81951;DHT22;71452;52.562;5.642;2024-02-15T13:33:11;14.40;79.80
81951;DHT22;71452;52.562;5.642;2024-02-15T13:35:41;14.40;80.00
81951;DHT22;71452;52.562;5.642;2024-02-15T13:38:13;14.40;80.00
81951;DHT22;71452;52.562;5.642;2024-02-15T13:40:49;14.50;80.00
81951;DHT22;71452;52.562;5.642;2024-02-15T13:43:21;14.50;80.10
81951;DHT22;71452;52.562;5.642;2024-02-15T13:45:50;14.50;80.00
81951;DHT22;71452;52.562;5.642;2024-02-15T13:48:20;14.60;80.10
81951;DHT22;71452;52.562;5.642;2024-02-15T13:50:51;14.70;80.10
81951;DHT22;71452;52.562;5.642;2024-02-15T13:53:24;14.80;79.90
81951;DHT22;71452;52.562;5.642;2024-02-15T13:55:54;14.80;80.00
81951;DHT22;71452;52.562;5.642;2024-02-15T13:58:24;14.90;79.70
81951;DHT22;71452;52.562;5.642;2024-02-15T14:00:53;14.90;79.70
81951;DHT22;71452;52.562;5.642;2024-02-15T14:03:23;14.90;79.70
81951;DHT22;71452;52.562;5.642;2024-02-15T14:05:53;14.90;79.60
81951;DHT22;71452;52.562;5.642;2024-02-15T14:08:24;15.00;79.60
81951;DHT22;71452;52.562;5.642;2024-02-15T14:10:54;15.00;79.50
81951;DHT22;71452;52.562;5.642;2024-02-15T14:13:23;15.00;79.40
81951;DHT22;71452;52.562;5.642;2024-02-15T14:15:52;15.00;79.20
81951;DHT22;71452;52.562;5.642;2024-02-15T14:18:22;15.00;79.30
81951;DHT22;71452;52.562;5.642;2024-02-15T14:20:51;15.00;79.10
81951;DHT22;71452;52.562;5.642;2024-02-15T14:23:20;15.00;79.30
81951;DHT22;71452;52.562;5.642;2024-02-15T14:25:56;15.00;79.20
81951;DHT22;71452;52.562;5.642;2024-02-15T14:28:27;15.00;79.10
81951;DHT22;71452;52.562;5.642;2024-02-15T14:30:56;15.10;79.20
81951;DHT22;71452;52.562;5.642;2024-02-15T14:33:37;15.10;79.20
81951;DHT22;71452;52.562;5.642;2024-02-15T14:36:07;15.20;79.30
81951;DHT22;71452;52.562;5.642;2024-02-15T14:38:37;15.20;79.20
81951;DHT22;71452;52.562;5.642;2024-02-15T14:41:09;15.20;79.00
81951;DHT22;71452;52.562;5.642;2024-02-15T14:43:39;15.20;79.10
81951;DHT22;71452;52.562;5.642;2024-02-15T14:46:09;15.30;79.10
81951;DHT22;71452;52.562;5.642;2024-02-15T14:48:38;15.30;79.00
81951;DHT22;71452;52.562;5.642;2024-02-15T14:51:15;15.30;78.90
81951;DHT22;71452;52.562;5.642;2024-02-15T14:53:45;15.40;78.70
81951;DHT22;71452;52.562;5.642;2024-02-15T14:56:17;15.30;78.60
81951;DHT22;71452;52.562;5.642;2024-02-15T14:58:47;15.40;78.60
81951;DHT22;71452;52.562;5.642;2024-02-15T15:01:16;15.30;78.50
81951;DHT22;71452;52.562;5.642;2024-02-15T15:03:53;15.30;78.30
81951;DHT22;71452;52.562;5.642;2024-02-15T15:06:24;15.30;78.30
81951;DHT22;71452;52.562;5.642;2024-02-15T15:09:06;15.30;78.20
81951;DHT22;71452;52.562;5.642;2024-02-15T15:11:50;15.30;78.30
81951;DHT22;71452;52.562;5.642;2024-02-15T15:14:32;15.30;78.30
81951;DHT22;71452;52.562;5.642;2024-02-15T15:17:01;15.20;78.10
81951;DHT22;71452;52.562;5.642;2024-02-15T15:19:30;15.20;78.10
81951;DHT22;71452;52.562;5.642;2024-02-15T15:21:59;15.20;78.00
81951;DHT22;71452;52.562;5.642;2024-02-15T15:24:31;15.20;78.00
81951;DHT22;71452;52.562;5.642;2024-02-15T15:27:04;15.20;77.80
81951;DHT22;71452;52.562;5.642;2024-02-15T15:29:33;15.20;77.80
81951;DHT22;71452;52.562;5.642;2024-02-15T15:32:03;15.10;77.80
81951;DHT22;71452;52.562;5.642;2024-02-15T15:34:34;15.10;77.90
81951;DHT22;71452;52.562;5.642;2024-02-15T15:37:03;15.10;77.90
81951;DHT22;71452;52.562;5.642;2024-02-15T15:39:33;15.10;77.90
81951;DHT22;71452;52.562;5.642;2024-02-15T15:42:06;15.10;77.80
81951;DHT22;71452;52.562;5.642;2024-02-15T15:44:35;15.20;77.80
81951;DHT22;71452;52.562;5.642;2024-02-15T15:47:05;15.10;77.60
81951;DHT22;71452;52.562;5.642;2024-02-15T15:49:36;15.10;77.50
81951;DHT22;71452;52.562;5.642;2024-02-15T15:52:05;15.20;77.60
81951;DHT22;71452;52.562;5.642;2024-02-15T15:54:34;15.20;77.50
81951;DHT22;71452;52.562;5.642;2024-02-15T15:57:06;15.10;77.50
81951;DHT22;71452;52.562;5.642;2024-02-15T15:59:35;15.10;77.40